createdAt,value
2023-05-14T00:00:43.566Z,33.19
2023-05-14T00:01:43.564Z,32.46
2023-05-14T00:02:43.635Z,30.72
2023-05-14T00:03:43.620Z,30.20
2023-05-14T00:04:43.538Z,31.36
2023-05-14T00:05:43.538Z,25.42
2023-05-14T00:06:43.517Z,27.04
2023-05-14T00:07:43.537Z,29.76
2023-05-14T00:08:43.522Z,25.38
2023-05-14T00:09:43.516Z,25.43
2023-05-14T00:10:43.508Z,27.79
2023-05-14T00:11:43.484Z,28.48
2023-05-14T00:12:43.484Z,34.87
2023-05-14T00:13:43.495Z,29.83
2023-05-14T00:14:43.458Z,31.24
2023-05-14T00:15:43.539Z,32.33
2023-05-14T00:16:43.457Z,30.12
2023-05-14T00:17:43.500Z,28.28
2023-05-14T00:18:43.499Z,30.01
2023-05-14T00:19:43.422Z,29.86
2023-05-14T00:20:43.407Z,29.59
2023-05-14T00:21:43.422Z,31.46
2023-05-14T00:22:43.401Z,27.84
2023-05-14T00:23:43.389Z,30.24
2023-05-14T00:24:43.384Z,31.69
2023-05-14T00:25:43.385Z,30.57
2023-05-14T00:26:43.423Z,30.74
2023-05-14T00:27:43.441Z,31.23
2023-05-14T00:28:43.470Z,31.86
2023-05-14T00:29:43.548Z,30.35
2023-05-14T00:30:43.531Z,27.92
2023-05-14T00:31:43.687Z,29.54
2023-05-14T00:32:43.664Z,30.16
2023-05-14T00:33:43.618Z,29.34
2023-05-14T00:34:43.661Z,32.12
2023-05-14T00:35:43.694Z,28.58
2023-05-14T00:36:43.703Z,29.76
2023-05-14T00:37:43.752Z,28.77
2023-05-14T00:38:43.773Z,28.31
2023-05-14T00:39:43.842Z,28.49
2023-05-14T00:40:43.836Z,31.77
2023-05-14T00:41:43.849Z,29.92
2023-05-14T00:42:43.871Z,30.64
2023-05-14T00:43:43.932Z,27.79
2023-05-14T00:44:43.935Z,30.41
2023-05-14T00:45:44.001Z,30.35
2023-05-14T00:46:44.056Z,33.84
2023-05-14T00:47:44.079Z,26.44
2023-05-14T00:48:44.054Z,27.73
2023-05-14T00:49:44.144Z,32.39
2023-05-14T00:50:44.107Z,25.37
2023-05-14T00:51:44.157Z,28.58
2023-05-14T00:52:44.169Z,29.82
2023-05-14T00:53:44.215Z,31.67
2023-05-14T00:54:44.266Z,30.89
2023-05-14T00:55:44.292Z,32.73
2023-05-14T00:56:44.301Z,29.90
2023-05-14T00:57:44.365Z,30.78
2023-05-14T00:58:44.362Z,27.31
2023-05-14T00:59:44.447Z,31.70
2023-05-14T01:00:44.480Z,29.46
2023-05-14T01:01:44.457Z,29.89
2023-05-14T01:02:44.561Z,32.30
2023-05-14T01:03:44.634Z,30.18
2023-05-14T01:04:44.552Z,30.54
2023-05-14T01:05:44.587Z,31.15
2023-05-14T01:06:44.614Z,29.74
2023-05-14T01:07:44.621Z,30.10
2023-05-14T01:08:44.688Z,29.93
2023-05-14T01:09:44.702Z,28.46
2023-05-14T01:10:44.733Z,29.50
2023-05-14T01:11:44.752Z,32.06
2023-05-14T01:12:44.785Z,31.30
2023-05-14T01:13:44.813Z,30.44
2023-05-14T01:14:44.857Z,31.31
2023-05-14T01:15:44.871Z,28.47
2023-05-14T01:16:44.993Z,29.33
2023-05-14T01:17:44.989Z,30.30
2023-05-14T01:18:45.033Z,25.35
2023-05-14T01:19:44.997Z,29.45
2023-05-14T01:20:45.027Z,30.27
2023-05-14T01:21:45.052Z,31.73
2023-05-14T01:22:45.080Z,31.54
2023-05-14T01:23:45.114Z,27.93
2023-05-14T01:24:45.170Z,28.74
2023-05-14T01:25:45.184Z,31.04
2023-05-14T01:26:45.215Z,33.41
2023-05-14T01:27:45.237Z,29.99
2023-05-14T01:28:45.265Z,33.49
2023-05-14T01:29:45.315Z,32.82
2023-05-14T01:30:45.332Z,31.44
2023-05-14T01:31:45.400Z,31.24
2023-05-14T01:32:45.439Z,30.24
2023-05-14T01:33:45.411Z,31.14
2023-05-14T01:34:45.453Z,34.42
2023-05-14T01:35:45.501Z,29.77
2023-05-14T01:36:45.489Z,26.67
2023-05-14T01:37:45.517Z,27.81
2023-05-14T01:38:45.597Z,29.12
2023-05-14T01:39:45.590Z,28.03
2023-05-14T01:40:45.612Z,31.22
2023-05-14T01:41:45.643Z,31.68
2023-05-14T01:42:45.700Z,31.42
2023-05-14T01:43:45.743Z,29.67
2023-05-14T01:44:45.729Z,32.69
2023-05-14T01:45:45.810Z,29.82
2023-05-14T01:46:45.800Z,27.95
2023-05-14T01:47:45.861Z,28.09
2023-05-14T01:48:45.845Z,30.15
2023-05-14T01:49:45.871Z,32.02
2023-05-14T01:50:45.915Z,26.96
2023-05-14T01:51:45.944Z,26.90
2023-05-14T01:52:45.989Z,31.60
2023-05-14T01:53:46.006Z,30.75
2023-05-14T01:54:46.046Z,30.10
2023-05-14T01:55:46.071Z,28.21
2023-05-14T01:56:46.111Z,29.65
2023-05-14T01:57:46.115Z,28.97
2023-05-14T01:58:46.164Z,30.03
2023-05-14T01:59:46.182Z,30.88
2023-05-14T02:00:46.235Z,29.06
2023-05-14T02:01:46.293Z,29.95
2023-05-14T02:02:46.385Z,29.45
2023-05-14T02:03:46.347Z,28.39
2023-05-14T02:04:46.349Z,31.29
2023-05-14T02:05:46.374Z,31.06
2023-05-14T02:06:46.397Z,30.67
2023-05-14T02:07:46.428Z,34.02
2023-05-14T02:08:46.439Z,30.61
2023-05-14T02:09:46.476Z,32.08
2023-05-14T02:10:46.515Z,28.23
2023-05-14T02:11:46.549Z,29.38
2023-05-14T02:12:46.592Z,30.97
2023-05-14T02:13:46.604Z,27.86
2023-05-14T02:14:46.632Z,29.65
2023-05-14T02:15:46.676Z,30.39
2023-05-14T02:16:46.695Z,30.37
2023-05-14T02:17:46.816Z,32.09
2023-05-14T02:18:46.806Z,30.61
2023-05-14T02:19:46.819Z,32.35
2023-05-14T02:20:46.867Z,33.94
2023-05-14T02:21:46.888Z,32.40
2023-05-14T02:22:46.897Z,30.74
2023-05-14T02:23:46.919Z,29.18
2023-05-14T02:24:46.949Z,26.69
2023-05-14T02:25:46.978Z,29.87
2023-05-14T02:26:47.028Z,28.57
2023-05-14T02:27:47.032Z,31.95
2023-05-14T02:28:47.071Z,32.10
2023-05-14T02:29:47.091Z,30.29
2023-05-14T02:30:47.159Z,31.83
2023-05-14T02:31:47.193Z,33.14
2023-05-14T02:32:47.232Z,32.29
2023-05-14T02:33:47.209Z,29.83
2023-05-14T02:34:47.244Z,31.64
2023-05-14T02:35:47.305Z,31.87
2023-05-14T02:36:47.314Z,31.65
2023-05-14T02:37:47.333Z,30.56
2023-05-14T02:38:47.377Z,32.70
2023-05-14T02:39:47.409Z,29.40
2023-05-14T02:40:47.453Z,31.05
2023-05-14T02:41:47.460Z,30.73
2023-05-14T02:42:47.483Z,31.33
2023-05-14T02:43:47.515Z,34.06
2023-05-14T02:44:47.543Z,31.63
2023-05-14T02:45:47.590Z,29.14
2023-05-14T02:46:47.690Z,29.09
2023-05-14T02:47:47.641Z,30.32
2023-05-14T02:48:47.649Z,30.35
2023-05-14T02:49:47.674Z,32.16
2023-05-14T02:50:47.697Z,29.68
2023-05-14T02:51:47.708Z,31.89
2023-05-14T02:52:47.745Z,28.65
2023-05-14T02:53:47.789Z,30.00
2023-05-14T02:54:47.811Z,26.64
2023-05-14T02:55:47.842Z,28.25
2023-05-14T02:56:47.874Z,26.25
2023-05-14T02:57:47.903Z,31.04
2023-05-14T02:58:47.930Z,30.08
2023-05-14T02:59:47.952Z,26.34
2023-05-14T03:00:47.984Z,29.79
2023-05-14T03:01:48.046Z,31.55
2023-05-14T03:02:48.126Z,29.39
2023-05-14T03:03:48.076Z,31.29
2023-05-14T03:04:48.085Z,31.57
2023-05-14T03:05:48.115Z,34.16
2023-05-14T03:06:48.147Z,26.43
2023-05-14T03:07:48.169Z,31.19
2023-05-14T03:08:48.189Z,28.51
2023-05-14T03:09:48.212Z,29.74
2023-05-14T03:10:48.249Z,28.83
2023-05-14T03:11:48.273Z,30.73
2023-05-14T03:12:48.292Z,30.02
2023-05-14T03:13:48.317Z,29.08
2023-05-14T03:14:48.351Z,32.43
2023-05-14T03:15:48.398Z,27.93
2023-05-14T03:16:48.450Z,27.97
2023-05-14T03:17:48.451Z,30.74
2023-05-14T03:18:48.505Z,29.39
2023-05-14T03:19:48.476Z,30.11
2023-05-14T03:20:48.509Z,30.61
2023-05-14T03:21:48.534Z,28.08
2023-05-14T03:22:48.588Z,27.94
2023-05-14T03:23:48.609Z,29.20
2023-05-14T03:24:48.613Z,25.20
2023-05-14T03:25:48.645Z,26.54
2023-05-14T03:26:48.675Z,29.69
2023-05-14T03:27:48.726Z,31.27
2023-05-14T03:28:48.728Z,28.67
2023-05-14T03:29:48.770Z,34.16
2023-05-14T03:30:48.813Z,30.75
2023-05-14T03:31:48.802Z,30.58
2023-05-14T03:32:48.892Z,26.80
2023-05-14T03:33:48.854Z,30.14
2023-05-14T03:34:48.869Z,29.52
2023-05-14T03:35:48.936Z,31.36
2023-05-14T03:36:48.953Z,29.41
2023-05-14T03:37:48.966Z,28.52
2023-05-14T03:38:48.985Z,28.37
2023-05-14T03:39:49.013Z,30.80
2023-05-14T03:40:49.076Z,30.05
2023-05-14T03:41:49.089Z,29.52
2023-05-14T03:42:49.112Z,30.08
2023-05-14T03:43:49.158Z,33.88
2023-05-14T03:44:49.175Z,31.40
2023-05-14T03:45:49.180Z,31.36
2023-05-14T03:46:49.216Z,27.89
2023-05-14T03:47:49.269Z,30.54
2023-05-14T03:48:49.287Z,32.68
2023-05-14T03:49:49.323Z,35.31
2023-05-14T03:50:49.316Z,33.55
2023-05-14T03:51:49.339Z,33.26
2023-05-14T03:52:49.401Z,32.18
2023-05-14T03:53:49.427Z,28.41
2023-05-14T03:54:49.445Z,30.75
2023-05-14T03:55:49.456Z,34.92
2023-05-14T03:56:49.482Z,34.01
2023-05-14T03:57:49.516Z,32.35
2023-05-14T03:58:49.535Z,34.01
2023-05-14T03:59:49.588Z,35.07
2023-05-14T04:00:49.597Z,31.95
2023-05-14T04:01:49.675Z,32.39
2023-05-14T04:02:49.762Z,34.02
2023-05-14T04:03:49.809Z,30.77
2023-05-14T04:04:49.818Z,32.62
2023-05-14T04:05:49.736Z,33.26
2023-05-14T04:06:49.770Z,34.25
2023-05-14T04:07:49.783Z,32.56
2023-05-14T04:08:49.804Z,34.04
2023-05-14T04:09:49.830Z,31.67
2023-05-14T04:10:49.910Z,32.91
2023-05-14T04:11:49.903Z,32.37
2023-05-14T04:12:49.929Z,31.12
2023-05-14T04:13:49.945Z,32.56
2023-05-14T04:14:49.961Z,32.32
2023-05-14T04:15:50.049Z,34.51
2023-05-14T04:16:50.057Z,32.43
2023-05-14T04:17:50.074Z,32.64
2023-05-14T04:18:50.121Z,33.36
2023-05-14T04:19:50.104Z,33.67
2023-05-14T04:20:50.183Z,31.55
2023-05-14T04:21:50.154Z,33.67
2023-05-14T04:22:50.184Z,30.82
2023-05-14T04:23:50.198Z,30.58
2023-05-14T04:24:50.248Z,31.75
2023-05-14T04:25:50.250Z,30.91
2023-05-14T04:26:50.288Z,31.68
2023-05-14T04:27:50.308Z,33.34
2023-05-14T04:28:50.339Z,33.20
2023-05-14T04:29:50.370Z,29.39
2023-05-14T04:30:50.386Z,29.31
2023-05-14T04:31:50.465Z,28.79
2023-05-14T04:32:50.512Z,32.05
2023-05-14T04:33:50.472Z,30.70
2023-05-14T04:34:50.490Z,30.06
2023-05-14T04:35:50.533Z,30.50
2023-05-14T04:36:50.566Z,30.42
2023-05-14T04:37:50.578Z,33.52
2023-05-14T04:38:50.625Z,31.08
2023-05-14T04:39:50.630Z,32.02
2023-05-14T04:40:50.654Z,31.40
2023-05-14T04:41:50.680Z,32.18
2023-05-14T04:42:50.712Z,31.92
2023-05-14T04:43:50.749Z,32.13
2023-05-14T04:44:50.750Z,32.25
2023-05-14T04:45:50.833Z,35.86
2023-05-14T04:46:50.814Z,30.70
2023-05-14T04:47:50.863Z,31.16
2023-05-14T04:48:50.860Z,30.28
2023-05-14T04:49:50.897Z,27.54
2023-05-14T04:50:50.991Z,29.79
2023-05-14T04:51:50.968Z,30.29
2023-05-14T04:52:50.990Z,29.54
2023-05-14T04:53:51.017Z,30.79
2023-05-14T04:54:51.183Z,34.44
2023-05-14T04:55:51.074Z,29.76
2023-05-14T04:56:51.082Z,32.83
2023-05-14T04:57:51.121Z,31.52
2023-05-14T04:58:51.140Z,30.86
2023-05-14T04:59:51.163Z,30.01
2023-05-14T05:00:51.240Z,32.68
2023-05-14T05:01:51.208Z,30.13
2023-05-14T05:02:51.308Z,32.85
2023-05-14T05:03:51.298Z,33.86
2023-05-14T05:04:51.301Z,32.90
2023-05-14T05:05:51.357Z,31.12
2023-05-14T05:06:51.379Z,31.28
2023-05-14T05:07:51.401Z,30.25
2023-05-14T05:08:51.422Z,30.61
2023-05-14T05:09:51.457Z,30.31
2023-05-14T05:10:51.512Z,25.90
2023-05-14T05:11:51.519Z,28.73
2023-05-14T05:12:51.523Z,27.81
2023-05-14T05:13:51.552Z,31.23
2023-05-14T05:14:51.601Z,31.56
2023-05-14T05:15:51.678Z,32.99
2023-05-14T05:16:51.633Z,33.69
2023-05-14T05:17:51.688Z,34.71
2023-05-14T05:18:51.822Z,33.44
2023-05-14T05:19:51.700Z,31.77
2023-05-14T05:20:51.757Z,28.74
2023-05-14T05:21:51.773Z,30.20
2023-05-14T05:22:51.803Z,30.44
2023-05-14T05:23:51.830Z,34.26
2023-05-14T05:24:51.842Z,29.32
2023-05-14T05:25:51.870Z,31.11
2023-05-14T05:26:51.905Z,30.40
2023-05-14T05:27:51.917Z,32.29
2023-05-14T05:28:51.958Z,33.30
2023-05-14T05:29:51.980Z,30.18
2023-05-14T05:30:52.029Z,29.72
2023-05-14T05:31:52.088Z,29.22
2023-05-14T05:32:52.103Z,29.90
2023-05-14T05:33:52.081Z,30.63
2023-05-14T05:34:52.132Z,31.17
2023-05-14T05:35:52.136Z,29.99
2023-05-14T05:36:52.137Z,33.10
2023-05-14T05:37:52.178Z,31.00
2023-05-14T05:38:52.203Z,28.23
2023-05-14T05:39:52.229Z,31.12
2023-05-14T05:40:52.253Z,30.48
2023-05-14T05:41:52.303Z,27.42
2023-05-14T05:42:52.286Z,28.74
2023-05-14T05:43:52.329Z,31.08
2023-05-14T05:44:52.353Z,29.75
2023-05-14T05:45:52.376Z,31.44
2023-05-14T05:46:52.470Z,28.32
2023-05-14T05:47:52.453Z,27.91
2023-05-14T05:48:52.463Z,30.32
2023-05-14T05:49:52.465Z,29.14
2023-05-14T05:50:52.503Z,27.02
2023-05-14T05:51:52.542Z,30.44
2023-05-14T05:52:52.565Z,28.65
2023-05-14T05:53:52.581Z,30.15
2023-05-14T05:54:52.599Z,27.59
2023-05-14T05:55:52.679Z,30.60
2023-05-14T05:56:52.707Z,30.21
2023-05-14T05:57:52.680Z,28.43
2023-05-14T05:58:52.713Z,29.63
2023-05-14T05:59:52.745Z,31.22
2023-05-14T06:00:52.774Z,31.69
2023-05-14T06:01:52.898Z,30.82
2023-05-14T06:02:52.899Z,30.13
2023-05-14T06:03:52.879Z,30.97
2023-05-14T06:04:52.987Z,32.53
2023-05-14T06:05:53.022Z,30.96
2023-05-14T06:06:52.934Z,32.45
2023-05-14T06:07:52.976Z,29.74
2023-05-14T06:08:52.997Z,33.24
2023-05-14T06:09:53.027Z,25.00
2023-05-14T06:10:53.043Z,30.54
2023-05-14T06:11:53.084Z,31.53
2023-05-14T06:12:53.101Z,32.25
2023-05-14T06:13:53.156Z,32.42
2023-05-14T06:14:53.153Z,31.06
2023-05-14T06:15:53.181Z,33.10
2023-05-14T06:16:53.368Z,33.18
2023-05-14T06:17:53.259Z,32.19
2023-05-14T06:18:53.320Z,32.97
2023-05-14T06:19:53.296Z,32.29
2023-05-14T06:20:53.338Z,31.56
2023-05-14T06:21:53.389Z,30.49
2023-05-14T06:22:53.382Z,30.32
2023-05-14T06:23:53.410Z,29.44
2023-05-14T06:24:53.437Z,32.77
2023-05-14T06:25:53.470Z,29.92
2023-05-14T06:26:53.508Z,31.53
2023-05-14T06:27:53.512Z,31.34
2023-05-14T06:28:53.554Z,32.22
2023-05-14T06:29:53.621Z,30.72
2023-05-14T06:30:53.622Z,31.04
2023-05-14T06:31:53.672Z,31.80
2023-05-14T06:32:53.683Z,32.06
2023-05-14T06:33:53.695Z,30.41
2023-05-14T06:34:53.728Z,30.89
2023-05-14T06:35:53.757Z,28.58
2023-05-14T06:36:53.776Z,29.05
2023-05-14T06:37:53.805Z,28.71
2023-05-14T06:38:53.832Z,29.86
2023-05-14T06:39:54.684Z,32.97
2023-05-14T06:40:53.895Z,30.88
2023-05-14T06:41:53.924Z,28.76
2023-05-14T06:42:53.946Z,33.29
2023-05-14T06:43:53.965Z,30.91
2023-05-14T06:44:53.982Z,31.12
2023-05-14T06:45:54.023Z,27.50
2023-05-14T06:46:54.075Z,30.13
2023-05-14T06:47:54.164Z,31.37
2023-05-14T06:48:54.152Z,28.01
2023-05-14T06:49:54.121Z,29.13
2023-05-14T06:50:54.157Z,32.34
2023-05-14T06:51:54.187Z,30.11
2023-05-14T06:52:54.200Z,28.34
2023-05-14T06:53:54.244Z,30.90
2023-05-14T06:54:54.264Z,28.73
2023-05-14T06:55:54.280Z,30.46
2023-05-14T06:56:54.320Z,28.52
2023-05-14T06:57:54.330Z,33.95
2023-05-14T06:58:54.350Z,27.97
2023-05-14T06:59:54.385Z,29.07
2023-05-14T07:00:54.432Z,28.07
2023-05-14T07:01:54.518Z,29.32
2023-05-14T07:02:54.539Z,29.94
2023-05-14T07:03:54.527Z,30.84
2023-05-14T07:04:54.514Z,27.38
2023-05-14T07:05:54.535Z,30.13
2023-05-14T07:06:54.571Z,32.26
2023-05-14T07:07:54.605Z,30.04
2023-05-14T07:08:54.634Z,29.55
2023-05-14T07:09:54.649Z,29.44
2023-05-14T07:10:54.667Z,34.22
2023-05-14T07:11:54.692Z,30.47
2023-05-14T07:12:54.726Z,29.67
2023-05-14T07:13:54.742Z,30.53
2023-05-14T07:14:54.775Z,28.19
2023-05-14T07:15:54.801Z,29.76
2023-05-14T07:16:54.858Z,28.69
2023-05-14T07:17:54.866Z,29.35
2023-05-14T07:18:54.932Z,30.50
2023-05-14T07:19:54.893Z,28.00
2023-05-14T07:20:54.944Z,27.83
2023-05-14T07:21:55.000Z,28.59
2023-05-14T07:22:54.999Z,31.06
2023-05-14T07:23:55.023Z,27.78
2023-05-14T07:24:55.031Z,32.85
2023-05-14T07:25:55.064Z,30.40
2023-05-14T07:26:55.104Z,32.34
2023-05-14T07:27:55.114Z,32.41
2023-05-14T07:28:55.142Z,30.54
2023-05-14T07:29:55.174Z,32.03
2023-05-14T07:30:55.242Z,31.56
2023-05-14T07:31:55.254Z,31.08
2023-05-14T07:32:55.328Z,28.53
2023-05-14T07:33:55.272Z,29.91
2023-05-14T07:34:55.321Z,30.44
2023-05-14T07:35:55.325Z,31.50
2023-05-14T07:36:55.396Z,25.04
2023-05-14T07:37:55.385Z,29.02
2023-05-14T07:38:55.414Z,28.14
2023-05-14T07:39:55.435Z,29.28
2023-05-14T07:40:55.464Z,33.10
2023-05-14T07:41:55.526Z,28.59
2023-05-14T07:42:55.530Z,30.99
2023-05-14T07:43:55.613Z,28.85
2023-05-14T07:44:55.614Z,33.71
2023-05-14T07:45:55.619Z,31.48
2023-05-14T07:46:55.667Z,28.55
2023-05-14T07:47:55.732Z,30.20
2023-05-14T07:48:55.718Z,30.73
2023-05-14T07:49:55.773Z,31.68
2023-05-14T07:50:55.762Z,31.40
2023-05-14T07:51:55.831Z,33.61
2023-05-14T07:52:55.834Z,31.51
2023-05-14T07:53:55.876Z,30.88
2023-05-14T07:54:55.892Z,30.34
2023-05-14T07:55:55.925Z,32.41
2023-05-14T07:56:55.994Z,32.69
2023-05-14T07:57:56.006Z,29.35
2023-05-14T07:58:56.030Z,28.85
2023-05-14T07:59:56.034Z,30.91
2023-05-14T08:00:56.069Z,29.91
2023-05-14T08:01:56.183Z,30.32
2023-05-14T08:02:56.291Z,34.27
2023-05-14T08:03:56.384Z,33.38
2023-05-14T08:04:56.197Z,27.77
2023-05-14T08:05:56.214Z,32.05
2023-05-14T08:06:56.260Z,35.06
2023-05-14T08:07:56.296Z,33.25
2023-05-14T08:08:56.321Z,32.75
2023-05-14T08:09:56.336Z,33.60
2023-05-14T08:10:56.429Z,33.34
2023-05-14T08:11:56.412Z,30.76
2023-05-14T08:12:56.434Z,32.30
2023-05-14T08:13:56.460Z,32.54
2023-05-14T08:14:56.473Z,32.97
2023-05-14T08:15:56.511Z,29.93
2023-05-14T08:16:56.663Z,34.65
2023-05-14T08:17:56.631Z,33.99
2023-05-14T08:18:56.657Z,30.79
2023-05-14T08:19:56.632Z,33.70
2023-05-14T08:20:56.732Z,32.93
2023-05-14T08:21:56.734Z,33.08
2023-05-14T08:22:56.750Z,33.32
2023-05-14T08:23:56.765Z,33.99
2023-05-14T08:24:56.797Z,31.12
2023-05-14T08:25:56.845Z,34.53
2023-05-14T08:26:56.870Z,36.52
2023-05-14T08:27:56.924Z,34.03
2023-05-14T08:28:56.953Z,34.59
2023-05-14T08:29:56.945Z,34.70
2023-05-14T08:30:57.002Z,30.09
2023-05-14T08:31:57.018Z,33.50
2023-05-14T08:32:57.040Z,33.10
2023-05-14T08:33:57.082Z,33.94
2023-05-14T08:34:57.121Z,32.55
2023-05-14T08:35:57.154Z,35.05
2023-05-14T08:36:57.188Z,33.69
2023-05-14T08:37:57.219Z,32.14
2023-05-14T08:38:57.226Z,31.10
2023-05-14T08:39:57.305Z,33.05
2023-05-14T08:40:57.308Z,33.10
2023-05-14T08:41:57.329Z,34.26
2023-05-14T08:42:57.353Z,33.70
2023-05-14T08:43:57.386Z,35.62
2023-05-14T08:44:57.411Z,33.70
2023-05-14T08:45:57.446Z,34.95
2023-05-14T08:46:57.480Z,33.37
2023-05-14T08:47:57.527Z,32.51
2023-05-14T08:48:57.583Z,33.09
2023-05-14T08:49:57.533Z,28.49
2023-05-14T08:50:57.554Z,34.79
2023-05-14T08:51:57.614Z,33.64
2023-05-14T08:52:57.615Z,35.13
2023-05-14T08:53:57.627Z,32.59
2023-05-14T08:54:57.685Z,32.19
2023-05-14T08:55:57.672Z,33.33
2023-05-14T08:56:57.706Z,35.90
2023-05-14T08:57:57.738Z,32.27
2023-05-14T08:58:57.765Z,33.56
2023-05-14T08:59:57.775Z,35.05
2023-05-14T09:00:57.804Z,33.64
2023-05-14T09:01:57.897Z,35.46
2023-05-14T09:02:57.899Z,30.50
2023-05-14T09:03:57.905Z,33.45
2023-05-14T09:04:57.916Z,33.97
2023-05-14T09:05:59.872Z,35.57
2023-05-14T09:06:57.957Z,31.86
2023-05-14T09:07:57.955Z,31.46
2023-05-14T09:08:57.976Z,32.23
2023-05-14T09:09:57.986Z,30.09
2023-05-14T09:10:58.014Z,31.97
2023-05-14T09:11:58.043Z,36.41
2023-05-14T09:12:58.062Z,34.94
2023-05-14T09:13:58.065Z,30.92
2023-05-14T09:14:58.106Z,32.38
2023-05-14T09:15:58.161Z,34.14
2023-05-14T09:16:58.192Z,33.28
2023-05-14T09:17:58.233Z,33.99
2023-05-14T09:18:58.226Z,35.75
2023-05-14T09:19:58.210Z,31.72
2023-05-14T09:20:58.210Z,29.76
2023-05-14T09:21:58.265Z,36.01
2023-05-14T09:22:58.254Z,36.51
2023-05-14T09:23:58.283Z,33.29
2023-05-14T09:24:58.311Z,40.29
2023-05-14T09:25:58.349Z,34.42
2023-05-14T09:26:58.391Z,36.80
2023-05-14T09:27:58.884Z,38.27
2023-05-14T09:28:58.408Z,35.08
2023-05-14T09:29:58.432Z,33.04
2023-05-14T09:30:58.469Z,38.89
2023-05-14T09:31:58.545Z,37.21
2023-05-14T09:32:58.529Z,36.49
2023-05-14T09:33:58.511Z,33.51
2023-05-14T09:34:58.529Z,33.44
2023-05-14T09:35:58.538Z,37.24
2023-05-14T09:36:58.635Z,38.88
2023-05-14T09:37:58.606Z,36.64
2023-05-14T09:38:58.628Z,38.24
2023-05-14T09:39:58.647Z,35.36
2023-05-14T09:40:58.705Z,39.24
2023-05-14T09:41:58.722Z,38.90
2023-05-14T09:42:58.699Z,37.30
2023-05-14T09:43:58.804Z,39.39
2023-05-14T09:44:58.753Z,36.81
2023-05-14T09:45:58.778Z,35.38
2023-05-14T09:46:58.824Z,37.59
2023-05-14T09:47:59.042Z,39.80
2023-05-14T09:48:58.840Z,37.03
2023-05-14T09:49:58.853Z,36.46
2023-05-14T09:50:58.875Z,41.99
2023-05-14T09:51:58.938Z,39.48
2023-05-14T09:52:58.932Z,36.53
2023-05-14T09:53:58.942Z,38.21
2023-05-14T09:54:58.958Z,35.30
2023-05-14T09:55:58.980Z,35.26
2023-05-14T09:56:59.017Z,35.22
2023-05-14T09:57:59.026Z,34.42
2023-05-14T09:58:59.044Z,32.79
2023-05-14T09:59:59.056Z,37.00
2023-05-14T10:00:59.122Z,35.25
2023-05-14T10:01:59.104Z,36.26
2023-05-14T10:02:59.196Z,31.56
2023-05-14T10:03:59.149Z,32.11
2023-05-14T10:04:59.152Z,33.27
2023-05-14T10:05:59.191Z,32.42
2023-05-14T10:06:59.193Z,32.65
2023-05-14T10:07:59.226Z,28.28
2023-05-14T10:08:59.229Z,28.23
2023-05-14T10:09:59.647Z,31.42
2023-05-14T10:10:59.262Z,35.65
2023-05-14T10:11:59.313Z,34.44
2023-05-14T10:12:59.310Z,33.56
2023-05-14T10:13:59.342Z,33.14
2023-05-14T10:14:59.334Z,32.51
2023-05-14T10:15:59.363Z,34.42
2023-05-14T10:16:59.406Z,36.92
2023-05-14T10:17:59.446Z,36.73
2023-05-14T10:18:59.474Z,36.44
2023-05-14T10:19:59.439Z,37.00
2023-05-14T10:20:59.478Z,34.03
2023-05-14T10:21:59.503Z,36.97
2023-05-14T10:22:59.509Z,34.99
2023-05-14T10:23:59.513Z,35.84
2023-05-14T10:24:59.530Z,39.42
2023-05-14T10:25:59.558Z,40.91
2023-05-14T10:26:59.593Z,36.41
2023-05-14T10:27:59.584Z,36.30
2023-05-14T10:28:59.600Z,35.66
2023-05-14T10:29:59.605Z,39.73
2023-05-14T10:30:59.737Z,41.20
2023-05-14T10:31:59.682Z,39.66
2023-05-14T10:32:59.753Z,39.54
2023-05-14T10:33:59.926Z,40.56
2023-05-14T10:34:59.730Z,39.69
2023-05-14T10:35:59.738Z,38.51
2023-05-14T10:36:59.764Z,37.53
2023-05-14T10:37:59.782Z,37.65
2023-05-14T10:38:59.815Z,40.43
2023-05-14T10:39:59.891Z,43.97
2023-05-14T10:40:59.957Z,38.41
2023-05-14T10:41:59.958Z,41.14
2023-05-14T10:42:59.996Z,39.66
2023-05-14T10:44:00.000Z,43.61
2023-05-14T10:45:00.016Z,39.09
2023-05-14T10:46:00.055Z,44.42
2023-05-14T10:47:00.138Z,39.69
2023-05-14T10:48:00.305Z,41.83
2023-05-14T10:49:00.128Z,38.91
2023-05-14T10:50:00.156Z,42.28
2023-05-14T10:51:00.219Z,40.89
2023-05-14T10:52:00.187Z,39.86
2023-05-14T10:53:00.218Z,37.70
2023-05-14T10:54:00.208Z,43.03
2023-05-14T10:55:02.896Z,42.49
2023-05-14T10:56:00.210Z,41.72
2023-05-14T10:57:00.211Z,42.45
2023-05-14T10:58:00.205Z,39.91
2023-05-14T10:59:00.212Z,38.56
2023-05-14T11:00:00.219Z,39.81
2023-05-14T11:01:00.183Z,40.98
2023-05-14T11:02:00.301Z,39.42
2023-05-14T11:03:00.257Z,39.82
2023-05-14T11:04:00.244Z,43.35
2023-05-14T11:05:00.193Z,43.06
2023-05-14T11:06:00.171Z,44.42
2023-05-14T11:07:00.143Z,41.32
2023-05-14T11:08:00.149Z,41.11
2023-05-14T11:09:00.150Z,37.35
2023-05-14T11:10:00.141Z,40.80
2023-05-14T11:11:00.130Z,42.20
2023-05-14T11:12:00.143Z,44.16
2023-05-14T11:13:00.163Z,40.16
2023-05-14T11:14:00.126Z,41.27
2023-05-14T11:15:00.148Z,44.68
2023-05-14T11:16:08.774Z,41.75
2023-05-14T11:17:01.095Z,42.10
2023-05-14T11:18:00.217Z,41.98
2023-05-14T11:19:00.111Z,42.55
2023-05-14T11:20:00.123Z,41.30
2023-05-14T11:21:00.175Z,40.00
2023-05-14T11:22:00.039Z,42.60
2023-05-14T11:23:00.031Z,41.90
2023-05-14T11:24:00.022Z,42.47
2023-05-14T11:25:00.064Z,42.60
2023-05-14T11:26:00.050Z,42.54
2023-05-14T11:27:00.029Z,39.26
2023-05-14T11:28:00.000Z,39.71
2023-05-14T11:29:00.003Z,40.10
2023-05-14T11:30:00.016Z,42.93
2023-05-14T11:30:59.994Z,41.38
2023-05-14T11:32:00.003Z,42.89
2023-05-14T11:33:01.922Z,43.94
2023-05-14T11:33:59.957Z,42.39
2023-05-14T11:34:59.959Z,43.72
2023-05-14T11:35:59.939Z,41.95
2023-05-14T11:36:59.924Z,41.38
2023-05-14T11:37:59.965Z,41.63
2023-05-14T11:38:59.915Z,40.52
2023-05-14T11:39:59.936Z,41.31
2023-05-14T11:40:59.908Z,36.58
2023-05-14T11:41:59.904Z,45.54
2023-05-14T11:42:59.906Z,44.42
2023-05-14T11:43:59.894Z,40.90
2023-05-14T11:44:59.910Z,39.93
2023-05-14T11:45:59.949Z,41.67
2023-05-14T11:46:59.941Z,41.02
2023-05-14T11:48:00.065Z,40.63
2023-05-14T11:49:00.020Z,41.45
2023-05-14T11:50:00.010Z,38.09
2023-05-14T11:51:00.037Z,40.87
2023-05-14T11:52:00.056Z,39.03
2023-05-14T11:53:00.126Z,41.11
2023-05-14T11:54:00.090Z,42.16
2023-05-14T11:55:00.095Z,39.73
2023-05-14T11:56:00.140Z,43.24
2023-05-14T11:57:00.187Z,37.89
2023-05-14T11:58:00.170Z,39.31
2023-05-14T11:59:00.169Z,41.34
2023-05-14T12:00:00.243Z,38.85
2023-05-14T12:01:00.193Z,40.72
2023-05-14T12:02:00.197Z,35.71
2023-05-14T12:03:00.375Z,37.09
2023-05-14T12:04:00.408Z,37.85
2023-05-14T12:05:00.230Z,42.97
2023-05-14T12:06:00.278Z,40.46
2023-05-14T12:07:00.311Z,41.04
2023-05-14T12:08:00.324Z,42.08
2023-05-14T12:09:00.345Z,40.78
2023-05-14T12:10:00.356Z,37.58
2023-05-14T12:11:00.397Z,42.41
2023-05-14T12:12:00.445Z,40.80
2023-05-14T12:13:00.528Z,43.02
2023-05-14T12:14:00.548Z,38.19
2023-05-14T12:15:00.560Z,40.96
2023-05-14T12:16:00.647Z,40.04
2023-05-14T12:17:00.593Z,39.65
2023-05-14T12:18:02.657Z,44.33
2023-05-14T12:19:00.638Z,43.23
2023-05-14T12:20:00.696Z,42.64
2023-05-14T12:21:00.726Z,43.65
2023-05-14T12:22:00.736Z,44.82
2023-05-14T12:23:00.780Z,41.82
2023-05-14T12:24:00.746Z,42.38
2023-05-14T12:25:00.755Z,44.03
2023-05-14T12:26:00.802Z,42.81
2023-05-14T12:27:00.807Z,41.30
2023-05-14T12:28:00.847Z,44.48
2023-05-14T12:29:00.836Z,40.98
2023-05-14T12:30:12.888Z,41.71
2023-05-14T12:31:01.881Z,42.04
2023-05-14T12:32:00.866Z,42.12
2023-05-14T12:33:00.872Z,43.08
2023-05-14T12:34:00.845Z,42.76
2023-05-14T12:35:00.830Z,44.68
2023-05-14T12:36:09.927Z,40.96
2023-05-14T12:37:01.813Z,41.18
2023-05-14T12:38:00.815Z,41.63
2023-05-14T12:39:00.799Z,42.19
2023-05-14T12:40:00.790Z,42.93
2023-05-14T12:41:00.784Z,47.41
2023-05-14T12:42:00.812Z,44.02
2023-05-14T12:43:00.770Z,45.53
2023-05-14T12:44:00.772Z,43.93
2023-05-14T12:45:00.754Z,42.74
2023-05-14T12:46:00.743Z,45.07
2023-05-14T12:47:00.786Z,47.10
2023-05-14T12:48:00.765Z,40.72
2023-05-14T12:49:00.726Z,45.17
2023-05-14T12:50:00.723Z,45.63
2023-05-14T12:51:00.723Z,40.14
2023-05-14T12:52:19.444Z,42.48
2023-05-14T12:53:01.718Z,42.60